• Join FlightAware (Why Join?)
  • Login
  • US Flag 
08:04AM EDT


 

Airport Tracker/Info


-or-


 

Live Flight TrackerFlight Track Log ✈ EJA727 ✈ 26-Jun-2013 ✈ KFTY - KISP

Flight Track Log - Related Links

Times and Time Zones

All times are in EDT time to prevent confusion due to time zone crossing. See the EJA727 flight status page for this flight to view local times or setup timezone preferences in your user account.

Time Position Orientation Groundspeed Altitude Reporting Facility
EDT Latitude Longitude Course Direction KTS MPH feet Rate Location/Type
08:02AM 33.8000 -84.5667 360° North 190 219 3,000  Level Atlanta TRACON
08:03AM 33.8500 -84.5667 360° North 221 254 4,800 2,820 Climbing Atlanta TRACON
08:04AM 33.9000 -84.5167 40° Northeast 233 268 8,500 3,300 Climbing Atlanta TRACON
08:05AM 33.9167 -84.4500 73° East 248 285 11,500 2,040 Climbing Atlanta TRACON
08:06AM 33.9378 -84.3669 73° East 290 334 12,400 1,320 Climbing Atlanta Center
08:07AM 33.9797 -84.2517 66° East 342 394 14,000 780 Climbing Atlanta Center
08:08AM 34.0175 -84.1342 69° East 368 423 14,000 300 Level Atlanta Center
08:09AM 33.9800 -84.0136 111° Southeast 351 404 14,700 1,380 Climbing Atlanta Center
08:10AM 33.9403 -83.9011 113° Southeast 376 433 16,800 1,980 Climbing Atlanta Center
08:11AM 33.9317 -83.7683 94° East 383 441 18,700 1,920 Climbing Atlanta Center
08:12AM 33.9606 -83.6356 75° East 399 459 20,700 1,980 Climbing Atlanta Center
08:13AM 34.0417 -83.5300 47° Northeast 407 468 22,700 1,980 Climbing Atlanta Center
08:14AM 34.1119 -83.4167 53° Northeast 420 483 24,700 2,040 Climbing Atlanta Center
08:15AM 34.1656 -83.2856 64° Northeast 420 483 26,800 2,040 Climbing Atlanta Center
08:16AM 34.2211 -83.1594 62° Northeast 420 483 28,800 1,800 Climbing Atlanta Center
08:17AM 34.2742 -83.0258 64° Northeast 425 489 30,500 1,320 Climbing Atlanta Center
08:18AM 34.3314 -82.8767 65° Northeast 431 496 31,500 1,020 Climbing Atlanta Center
08:19AM 34.3864 -82.7425 64° Northeast 442 509 32,600 1,020 Climbing Atlanta Center
08:20AM 34.4292 -82.6336 65° Northeast 442 509 33,600 1,080 Climbing Atlanta Center
08:21AM 34.4919 -82.4839 63° Northeast 442 509 34,800 660 Climbing Atlanta Center
08:22AM 34.5464 -82.3467 64° Northeast 442 509 35,000 60 Climbing Atlanta Center
08:23AM 34.6028 -82.2017 65° Northeast 453 521 35,000  Level Atlanta Center
08:24AM 34.6569 -82.0589 65° Northeast 458 527 35,000  Level Atlanta Center
08:25AM 34.7150 -81.9186 63° Northeast 463 533 35,000  Level Atlanta Center
08:26AM 34.7708 -81.7706 65° Northeast 471 542 35,000  Level Atlanta Center
08:27AM 34.8286 -81.6172 65° Northeast 476 548 35,000  Level Atlanta Center
08:28AM 34.8897 -81.4533 66° East 476 548 35,000  Level Atlanta Center
08:29AM 34.9411 -81.3150 66° East 488 562 35,000  Level Atlanta Center
08:30AM 35.0003 -81.1658 64° Northeast 488 562 35,000  Level Atlanta Center
08:31AM 35.0592 -81.0117 65° Northeast 488 562 35,000  Level Atlanta Center
08:32AM 35.1158 -80.8597 65° Northeast 488 562 35,000  Level Atlanta Center
08:33AM 35.1722 -80.7050 66° East 494 568 35,000  Level Atlanta Center
08:34AM 35.2306 -80.5503 65° Northeast 494 568 35,000  Level Atlanta Center
08:36AM 35.3464 -80.2292 66° East 491 565 35,000  Level Washington Center
08:37AM 35.4042 -80.0769 65° Northeast 491 565 35,000  Level Washington Center
08:38AM 35.4572 -79.9422 64° Northeast 491 565 35,000  Level Washington Center
08:39AM 35.5128 -79.7869 66° East 491 565 35,000  Level Washington Center
08:40AM 35.5769 -79.6194 65° Northeast 491 565 35,000  Level Washington Center
08:41AM 35.6256 -79.4786 67° East 496 571 35,000  Level Washington Center
08:42AM 35.6806 -79.3281 66° East 486 559 35,000  Level Washington Center
08:43AM 35.7353 -79.1769 66° East 486 559 35,000  Level Washington Center
08:44AM 35.7919 -79.0183 66° East 491 565 35,000 60 Level Washington Center
08:45AM 35.8464 -78.8642 66° East 491 565 35,200 480 Climbing Washington Center
08:46AM 35.8842 -78.7017 74° East 491 565 36,000 960 Climbing Washington Center
08:47AM 35.8986 -78.5433 84° East 474 545 37,200 1,140 Climbing Washington Center
08:48AM 35.9314 -78.3881 75° East 469 540 38,300 900 Climbing Washington Center
08:49AM 35.9931 -78.2517 61° Northeast 449 517 39,000 300 Climbing Washington Center
08:50AM 36.0567 -78.1072 61° Northeast 455 524 39,000  Level Washington Center
08:51AM 36.1222 -77.9653 60° Northeast 460 529 39,000  Level Washington Center
08:52AM 36.1833 -77.8231 62° Northeast 466 536 39,000  Level Washington Center
08:53AM 36.2483 -77.6808 60° Northeast 472 543 39,000  Level Washington Center
08:54AM 36.3114 -77.5433 60° Northeast 467 537 39,000  Level Washington Center
08:55AM 36.3742 -77.3847 64° Northeast 462 532 39,000  Level Washington Center
08:56AM 36.4389 -77.2444 60° Northeast 457 526 39,000  Level Washington Center
08:57AM 36.4969 -77.1061 62° Northeast 457 526 39,000  Level Washington Center
08:58AM 36.5592 -76.9625 62° Northeast 457 526 39,000  Level Washington Center
08:59AM 36.6192 -76.8236 62° Northeast 457 526 39,000  Level Washington Center
09:00AM 36.6789 -76.7003 59° Northeast 457 526 39,000  Level Washington Center
09:01AM 36.7469 -76.5381 62° Northeast 463 533 39,000  Level Washington Center
09:02AM 36.8064 -76.3986 62° Northeast 463 533 39,000  Level Washington Center
09:03AM 36.8697 -76.2567 61° Northeast 458 527 39,000  Level Washington Center
09:04AM 36.9578 -76.1636 40° Northeast 449 517 39,000  Level Washington Center
09:05AM 37.0792 -76.0969 24° Northeast 449 517 39,000  Level Washington Center
09:06AM 37.1922 -76.0219 28° Northeast 449 517 39,000  Level Washington Center
09:07AM 37.3069 -75.9522 26° Northeast 449 517 39,000 -60 Level Washington Center
09:08AM 37.4219 -75.8794 27° Northeast 454 522 38,900  Descending Washington Center
09:09AM 37.5389 -75.8067 26° Northeast 454 522 39,000  Climbing Washington Center
09:10AM 37.6558 -75.7333 26° Northeast 454 522 39,000 -60 Level Washington Center
09:11AM 37.7728 -75.6600 26° Northeast 454 522 38,900  Descending Washington Center
09:12AM 37.8894 -75.5839 27° Northeast 459 528 39,000  Climbing Washington Center
09:13AM 38.0042 -75.5153 25° Northeast 459 528 39,000  Level Washington Center
09:14AM 38.1189 -75.4361 28° Northeast 459 528 39,000  Level Washington Center
09:15AM 38.2250 -75.3458 34° Northeast 459 528 39,000  Level Washington Center
09:16AM 38.3372 -75.2344 38° Northeast 459 528 39,000  Level Washington Center
09:17AM 38.4206 -75.1572 36° Northeast 459 528 39,000 -480 Level Washington Center
09:18AM 38.5450 -75.0608 31° Northeast 466 536 38,100 -1,020 Descending Washington Center
09:19AM 38.6489 -74.9669 35° Northeast 466 536 37,000 -600 Descending Washington Center
09:20AM 38.7567 -74.8675 36° Northeast 466 536 37,000 -480 Level Washington Center
09:21AM 38.8542 -74.7628 40° Northeast 466 536 36,100 -1,560 Descending Washington Center
09:22AM 38.9597 -74.6653 36° Northeast 458 527 33,900 -2,400 Descending Washington Center
09:24AM 39.1972 -74.4517 35° Northeast 465 535 28,600 -2,520 Descending New York Center
09:25AM 39.3111 -74.3475 35° Northeast 481 554 26,000 -2,580 Descending New York Center
09:26AM 39.4225 -74.2483 35° Northeast 486 559 23,500 -2,460 Descending New York Center
09:27AM 39.5217 -74.1350 41° Northeast 486 559 21,100 -1,500 Descending New York Center
09:28AM 39.6086 -74.0097 48° Northeast 464 534 20,600 -1,260 Descending New York Center
09:30AM 39.8072 -73.6986 50° Northeast 429 494 16,800 -1,500 Descending Boston Center
09:31AM 39.8814 -73.5783 51° Northeast 422 486 15,400 -1,440 Descending Boston Center
09:32AM 39.9636 -73.4794 43° Northeast 417 480 14,000 -1,320 Descending Boston Center
09:33AM 40.0375 -73.3886 43° Northeast 383 441 12,800 -1,140 Descending Boston Center
09:34AM 40.1028 -73.3081 43° Northeast 351 404 11,800 -960 Descending Boston Center
09:35AM 40.1572 -73.2464 41° Northeast 334 384 10,900 -1,020 Descending Boston Center
09:37AM 40.2372 -73.1494 43° Northeast 320 368 9,600 -900 Descending Boston Center
09:38AM 40.3169 -73.0525 43° Northeast 320 368 9,000 -960 Descending Boston Center
09:40AM 40.5000 -72.9500 23° Northeast 292 336 6,500 -1,380 Descending New York TRACON
09:41AM 40.5833 -72.9333 North 262 302 4,300 -1,680 Descending New York TRACON
09:42AM 40.6500 -72.9667 339° North 243 280 3,000 -1,200 Descending New York TRACON
09:43AM 40.7167 -72.9833 349° North 220 253 2,000 -840 Descending New York TRACON
09:44AM 40.7667 -73.0167 333° Northwest 197 227 1,400 -360 Descending New York TRACON
09:45AM 40.8167 -73.0333 346° North 183 211 1,300 -600 Descending New York TRACON
09:46AM 40.8000 -73.0833 246° West 146 168 200 -1,140 Descending New York TRACON